createdAt,value
2023-03-11T00:00:00.431Z,61.93
2023-03-11T00:02:32.216Z,61.94
2023-03-11T00:05:04.415Z,62.49
2023-03-11T00:07:37.719Z,62.81
2023-03-11T00:10:33.576Z,64.89
2023-03-11T00:13:07.317Z,65.14
2023-03-11T00:15:39.869Z,65.39
2023-03-11T00:18:11.748Z,66.23
2023-03-11T00:20:45.679Z,65.81
2023-03-11T00:23:17.405Z,65.74
2023-03-11T00:25:49.119Z,67.61
2023-03-11T00:28:25.266Z,67.36
2023-03-11T00:30:57.042Z,68.05
2023-03-11T00:33:28.783Z,67.96
2023-03-11T00:36:00.503Z,67.85
2023-03-11T00:38:32.482Z,67.75
2023-03-11T00:41:04.460Z,69.05
2023-03-11T00:43:36.380Z,69.29
2023-03-11T00:46:10.195Z,70.68
2023-03-11T00:48:41.936Z,70.38
2023-03-11T00:51:15.336Z,70.54
2023-03-11T00:53:47.172Z,70.57
2023-03-11T00:56:19.072Z,70.87
2023-03-11T00:58:50.828Z,70.86
2023-03-11T01:01:23.512Z,70.43
2023-03-11T01:03:55.550Z,70.91
2023-03-11T01:06:32.741Z,70.59
2023-03-11T01:09:11.090Z,70.58
2023-03-11T01:11:42.863Z,70.12
2023-03-11T01:14:14.793Z,69.42
2023-03-11T01:16:46.659Z,69.21
2023-03-11T01:19:20.924Z,68.80
2023-03-11T01:21:52.848Z,68.55
2023-03-11T01:24:24.630Z,68.86
2023-03-11T01:26:56.429Z,68.42
2023-03-11T01:29:29.670Z,67.56
2023-03-11T01:32:01.344Z,67.84
2023-03-11T01:34:35.773Z,66.89
2023-03-11T01:37:07.503Z,67.17
2023-03-11T01:39:39.218Z,67.55
2023-03-11T01:42:15.026Z,67.31
2023-03-11T01:44:47.344Z,66.45
2023-03-11T01:47:39.778Z,65.57
2023-03-11T01:50:13.981Z,65.55
2023-03-11T01:52:47.792Z,64.58
2023-03-11T01:55:20.432Z,64.25
2023-03-11T01:57:54.007Z,64.55
2023-03-11T02:00:26.772Z,63.67
2023-03-11T02:03:02.317Z,63.85
2023-03-11T02:05:35.347Z,62.73
2023-03-11T02:08:08.035Z,62.60
2023-03-11T02:10:41.917Z,62.92
2023-03-11T02:13:13.729Z,63.48
2023-03-11T02:15:46.429Z,62.75
2023-03-11T02:18:20.404Z,63.85
2023-03-11T02:21:18.781Z,63.68
2023-03-11T02:24:13.418Z,63.76
2023-03-11T02:26:55.842Z,63.09
2023-03-11T02:29:29.586Z,63.69
2023-03-11T02:32:06.580Z,63.24
2023-03-11T02:34:39.766Z,63.42
2023-03-11T02:37:14.860Z,63.16
2023-03-11T02:39:54.795Z,63.15
2023-03-11T02:42:32.544Z,63.92
2023-03-11T02:45:30.751Z,63.59
2023-03-11T02:48:03.278Z,64.13
2023-03-11T02:50:37.334Z,64.13
2023-03-11T02:53:10.168Z,63.74
2023-03-11T02:55:42.096Z,63.92
2023-03-11T02:58:13.957Z,64.02
2023-03-11T03:00:45.838Z,64.57
2023-03-11T03:03:17.794Z,64.30
2023-03-11T03:05:50.810Z,64.34
2023-03-11T03:08:22.709Z,64.57
2023-03-11T03:10:54.468Z,64.19
2023-03-11T03:13:27.481Z,64.38
2023-03-11T03:16:00.817Z,64.49
2023-03-11T03:18:32.708Z,64.77
2023-03-11T03:21:05.521Z,63.80
2023-03-11T03:23:38.210Z,63.81
2023-03-11T03:26:13.772Z,63.16
2023-03-11T03:28:47.238Z,63.05
2023-03-11T03:31:19.493Z,62.62
2023-03-11T03:33:51.336Z,62.49
2023-03-11T03:36:23.859Z,62.59
2023-03-11T03:39:01.555Z,62.06
2023-03-11T03:41:37.696Z,62.59
2023-03-11T03:44:10.328Z,62.38
2023-03-11T03:46:42.449Z,62.23
2023-03-11T03:49:14.909Z,61.74
2023-03-11T03:51:46.985Z,60.96
2023-03-11T03:54:29.000Z,61.20
2023-03-11T03:57:01.111Z,60.68
2023-03-11T03:59:35.127Z,61.22
2023-03-11T04:02:09.615Z,60.24
2023-03-11T04:04:41.642Z,60.48
2023-03-11T04:07:15.624Z,60.48
2023-03-11T04:09:47.533Z,60.50
2023-03-11T04:12:20.377Z,60.70
2023-03-11T04:14:52.263Z,61.32
2023-03-11T04:17:24.215Z,61.37
2023-03-11T04:19:57.449Z,61.30
2023-03-11T04:22:29.459Z,61.44
2023-03-11T04:25:01.317Z,61.44
2023-03-11T04:27:34.890Z,60.90
2023-03-11T04:30:09.640Z,61.26
2023-03-11T04:32:41.827Z,60.95
2023-03-11T04:35:14.238Z,61.05
2023-03-11T04:37:46.049Z,60.68
2023-03-11T04:40:18.587Z,60.98
2023-03-11T04:42:53.046Z,60.41
2023-03-11T04:45:24.995Z,60.52
2023-03-11T04:48:01.181Z,61.18
2023-03-11T04:50:35.329Z,61.20
2023-03-11T04:53:07.215Z,60.70
2023-03-11T04:55:40.047Z,60.66
2023-03-11T04:58:11.814Z,60.93
2023-03-11T05:00:44.539Z,60.79
2023-03-11T05:03:19.083Z,60.89
2023-03-11T05:05:53.192Z,60.73
2023-03-11T05:08:26.602Z,61.24
2023-03-11T05:10:58.437Z,60.59
2023-03-11T05:13:30.238Z,60.57
2023-03-11T05:16:02.509Z,61.18
2023-03-11T05:18:34.365Z,61.49
2023-03-11T05:21:06.548Z,61.41
2023-03-11T05:23:40.800Z,62.04
2023-03-11T05:26:12.623Z,61.70
2023-03-11T05:28:47.084Z,62.58
2023-03-11T05:31:18.970Z,62.43
2023-03-11T05:33:50.739Z,61.98
2023-03-11T05:36:22.562Z,62.62
2023-03-11T05:38:54.481Z,62.28
2023-03-11T05:41:29.307Z,63.17
2023-03-11T05:44:01.016Z,62.30
2023-03-11T05:46:33.797Z,62.72
2023-03-11T05:49:06.718Z,62.80
2023-03-11T05:51:38.541Z,62.92
2023-03-11T05:54:15.057Z,62.58
2023-03-11T05:56:50.220Z,62.24
2023-03-11T05:59:24.007Z,62.66
2023-03-11T06:02:02.081Z,62.15
2023-03-11T06:04:34.129Z,62.60
2023-03-11T06:07:12.207Z,62.53
2023-03-11T06:09:44.659Z,62.00
2023-03-11T06:12:21.102Z,62.44
2023-03-11T06:15:09.351Z,62.10
2023-03-11T06:17:42.273Z,62.49
2023-03-11T06:20:14.383Z,61.77
2023-03-11T06:22:51.272Z,61.87
2023-03-11T06:25:26.003Z,61.97
2023-03-11T06:27:59.249Z,62.11
2023-03-11T06:30:32.512Z,61.90
2023-03-11T06:33:16.492Z,61.80
2023-03-11T06:35:59.658Z,62.17
2023-03-11T06:38:32.320Z,61.99
2023-03-11T06:41:05.999Z,62.33
2023-03-11T06:43:39.805Z,61.26
2023-03-11T06:46:16.150Z,61.39
2023-03-11T06:48:52.441Z,61.88
2023-03-11T06:51:25.835Z,61.40
2023-03-11T06:53:57.635Z,61.30
2023-03-11T06:56:30.621Z,61.26
2023-03-11T06:59:07.685Z,60.94
2023-03-11T07:01:40.130Z,60.51
2023-03-11T07:04:13.844Z,60.60
2023-03-11T07:06:46.916Z,60.58
2023-03-11T07:09:25.357Z,60.36
2023-03-11T07:11:57.429Z,59.29
2023-03-11T07:14:34.993Z,59.03
2023-03-11T07:17:06.737Z,59.00
2023-03-11T07:19:43.755Z,58.57
2023-03-11T07:22:15.589Z,58.99
2023-03-11T07:24:50.526Z,59.20
2023-03-11T07:27:23.140Z,58.69
2023-03-11T07:29:54.962Z,58.97
2023-03-11T07:32:26.674Z,58.95
2023-03-11T07:34:58.392Z,59.30
2023-03-11T07:37:30.105Z,59.14
2023-03-11T07:40:01.987Z,58.46
2023-03-11T07:42:34.890Z,58.50
2023-03-11T07:45:08.072Z,58.85
2023-03-11T07:47:39.859Z,58.61
2023-03-11T07:50:12.135Z,58.89
2023-03-11T07:52:44.199Z,58.40
2023-03-11T07:55:16.095Z,58.31
2023-03-11T07:57:49.269Z,58.77
2023-03-11T08:00:21.436Z,59.29
2023-03-11T08:02:53.593Z,58.81
2023-03-11T08:05:25.339Z,59.43
2023-03-11T08:07:57.020Z,59.68
2023-03-11T08:10:28.835Z,59.36
2023-03-11T08:13:00.632Z,59.82
2023-03-11T08:15:32.655Z,59.46
2023-03-11T08:18:05.275Z,60.14
2023-03-11T08:20:39.989Z,59.49
2023-03-11T08:23:11.893Z,59.04
2023-03-11T08:25:43.663Z,59.10
2023-03-11T08:28:16.174Z,59.70
2023-03-11T08:30:47.958Z,59.62
2023-03-11T08:33:19.937Z,59.77
2023-03-11T08:35:51.796Z,59.19
2023-03-11T08:38:23.549Z,59.94
2023-03-11T08:40:55.284Z,59.84
2023-03-11T08:43:27.172Z,59.68
2023-03-11T08:46:04.000Z,59.38
2023-03-11T08:48:37.872Z,59.96
2023-03-11T08:51:13.526Z,59.14
2023-03-11T08:53:45.533Z,60.19
2023-03-11T08:56:17.476Z,59.11
2023-03-11T08:58:50.839Z,59.16
2023-03-11T09:01:23.749Z,58.76
2023-03-11T09:03:55.703Z,59.44
2023-03-11T09:06:30.414Z,58.52
2023-03-11T09:09:02.169Z,58.48
2023-03-11T09:11:37.452Z,58.53
2023-03-11T09:14:09.225Z,58.56
2023-03-11T09:16:41.150Z,58.42
2023-03-11T09:19:12.889Z,57.96
2023-03-11T09:21:44.668Z,57.94
2023-03-11T09:24:16.368Z,57.68
2023-03-11T09:26:48.132Z,57.21
2023-03-11T09:29:19.881Z,56.72
2023-03-11T09:31:51.816Z,56.33
2023-03-11T09:34:23.653Z,56.25
2023-03-11T09:36:55.411Z,56.77
2023-03-11T09:39:27.251Z,56.79
2023-03-11T09:42:15.216Z,57.34
2023-03-11T09:44:59.589Z,58.14
2023-03-11T09:47:39.221Z,57.97
2023-03-11T09:50:20.484Z,57.66
2023-03-11T09:53:18.880Z,57.99
2023-03-11T09:55:56.514Z,57.38
2023-03-11T09:58:51.566Z,57.99
2023-03-11T10:01:37.521Z,57.70
2023-03-11T10:04:18.257Z,57.39
2023-03-11T10:06:50.294Z,57.44
2023-03-11T10:09:39.926Z,56.91
2023-03-11T10:12:20.249Z,56.23
2023-03-11T10:14:54.722Z,56.42
2023-03-11T10:17:58.807Z,55.63
2023-03-11T10:21:00.304Z,54.15
2023-03-11T10:23:57.956Z,54.08
2023-03-11T10:26:39.800Z,53.20
2023-03-11T10:29:25.813Z,53.75
2023-03-11T10:32:13.320Z,51.92
2023-03-11T10:34:53.632Z,52.18
2023-03-11T10:37:48.040Z,52.95
2023-03-11T10:40:28.200Z,53.73
2023-03-11T10:43:19.890Z,53.64
2023-03-11T10:45:53.355Z,53.49
2023-03-11T10:48:27.268Z,53.86
2023-03-11T10:51:11.860Z,53.32
2023-03-11T10:53:53.072Z,52.72
2023-03-11T10:56:38.662Z,51.78
2023-03-11T10:59:42.752Z,51.91
2023-03-11T11:02:31.701Z,52.04
2023-03-11T11:05:06.318Z,51.75
2023-03-11T11:07:42.152Z,52.17
2023-03-11T11:10:22.109Z,52.57
2023-03-11T11:12:59.475Z,52.83
2023-03-11T11:15:42.204Z,53.10
2023-03-11T11:18:22.329Z,53.23
2023-03-11T11:20:53.940Z,52.76
2023-03-11T11:23:30.950Z,52.85
2023-03-11T11:26:06.274Z,52.88
2023-03-11T11:28:38.027Z,53.68
2023-03-11T11:31:26.489Z,53.63
2023-03-11T11:33:58.297Z,54.13
2023-03-11T11:36:38.877Z,54.24
2023-03-11T11:39:17.397Z,53.90
2023-03-11T11:41:52.947Z,53.82
2023-03-11T11:44:33.832Z,54.58
2023-03-11T11:47:18.992Z,54.39
2023-03-11T11:49:58.564Z,53.65
2023-03-11T11:52:45.243Z,53.36
2023-03-11T11:55:29.630Z,52.72
2023-03-11T11:58:01.396Z,53.17
2023-03-11T12:01:03.441Z,51.78
2023-03-11T12:04:12.232Z,52.53
2023-03-11T12:07:14.394Z,52.73
2023-03-11T12:09:58.084Z,53.57
2023-03-11T12:12:46.256Z,53.42
2023-03-11T12:15:27.020Z,53.53
2023-03-11T12:18:07.073Z,54.23
2023-03-11T12:20:45.492Z,53.69
2023-03-11T12:23:20.205Z,54.38
2023-03-11T12:26:07.730Z,55.32
2023-03-11T12:29:17.985Z,55.59
2023-03-11T12:31:50.425Z,56.02
2023-03-11T12:34:24.913Z,55.67
2023-03-11T12:37:03.418Z,56.01
2023-03-11T12:39:35.636Z,55.96
2023-03-11T12:42:13.067Z,56.57
2023-03-11T12:44:45.979Z,57.33
2023-03-11T12:47:20.855Z,57.04
2023-03-11T12:49:57.220Z,56.66
2023-03-11T12:52:30.060Z,56.12
2023-03-11T12:55:01.682Z,55.43
2023-03-11T12:57:53.019Z,54.44
2023-03-11T13:00:34.913Z,54.49
2023-03-11T13:03:15.853Z,53.79
2023-03-11T13:06:00.421Z,53.92
2023-03-11T13:08:45.615Z,54.03
2023-03-11T13:11:49.328Z,53.82
2023-03-11T13:14:29.726Z,53.92
2023-03-11T13:17:20.247Z,53.97
2023-03-11T13:19:53.968Z,54.49
2023-03-11T13:22:57.556Z,54.46
2023-03-11T13:25:33.005Z,54.31
2023-03-11T13:28:47.298Z,53.69
2023-03-11T13:31:27.885Z,53.81
2023-03-11T13:34:37.182Z,52.45
2023-03-11T13:37:16.685Z,52.13
2023-03-11T13:40:05.783Z,52.55
2023-03-11T13:42:44.492Z,51.93
2023-03-11T13:45:37.028Z,51.79
2023-03-11T13:48:17.425Z,52.25
2023-03-11T13:51:06.879Z,52.10
2023-03-11T13:53:43.812Z,52.85
2023-03-11T13:56:32.840Z,52.86
2023-03-11T13:59:18.023Z,52.73
2023-03-11T14:01:58.095Z,53.46
2023-03-11T14:04:36.315Z,53.23
2023-03-11T14:07:20.136Z,53.27
2023-03-11T14:09:52.076Z,53.54
2023-03-11T14:12:23.775Z,53.25
2023-03-11T14:15:01.131Z,53.60
2023-03-11T14:17:32.947Z,53.13
2023-03-11T14:20:27.906Z,52.54
2023-03-11T14:22:59.711Z,52.07
2023-03-11T14:25:31.480Z,52.34
2023-03-11T14:28:04.899Z,52.96
2023-03-11T14:30:36.600Z,52.57
2023-03-11T14:33:22.913Z,53.09
2023-03-11T14:35:57.709Z,53.22
2023-03-11T14:38:30.968Z,52.22
2023-03-11T14:41:07.074Z,52.67
2023-03-11T14:43:44.272Z,52.16
2023-03-11T14:46:22.361Z,52.05
2023-03-11T14:48:56.386Z,52.52
2023-03-11T14:51:33.864Z,53.84
2023-03-11T14:54:17.666Z,54.52
2023-03-11T14:57:10.516Z,54.54
2023-03-11T14:59:43.981Z,55.28
2023-03-11T15:02:34.730Z,55.82
2023-03-11T15:05:17.029Z,55.56
2023-03-11T15:07:51.660Z,55.58
2023-03-11T15:10:23.496Z,55.79
2023-03-11T15:13:15.762Z,55.65
2023-03-11T15:15:56.583Z,56.23
2023-03-11T15:18:42.570Z,55.83
2023-03-11T15:21:17.957Z,55.24
2023-03-11T15:23:51.366Z,55.15
2023-03-11T15:26:29.434Z,55.00
2023-03-11T15:29:11.611Z,55.19
2023-03-11T15:31:47.944Z,54.19
2023-03-11T15:34:32.587Z,54.35
2023-03-11T15:37:20.966Z,53.65
2023-03-11T15:39:53.301Z,54.55
2023-03-11T15:42:26.419Z,53.74
2023-03-11T15:45:03.292Z,53.15
2023-03-11T15:47:36.211Z,52.00
2023-03-11T15:50:24.951Z,52.14
2023-03-11T15:52:59.416Z,51.36
2023-03-11T15:55:31.185Z,50.70
2023-03-11T15:58:07.880Z,50.41
2023-03-11T16:00:42.926Z,51.16
2023-03-11T16:03:14.915Z,50.95
2023-03-11T16:05:47.159Z,50.27
2023-03-11T16:08:18.926Z,50.81
2023-03-11T16:10:50.697Z,50.27
2023-03-11T16:13:23.253Z,49.85
2023-03-11T16:15:55.171Z,49.73
2023-03-11T16:18:26.896Z,49.64
2023-03-11T16:20:58.597Z,49.01
2023-03-11T16:23:50.194Z,49.55
2023-03-11T16:26:23.151Z,49.28
2023-03-11T16:28:57.287Z,49.77
2023-03-11T16:31:31.426Z,49.65
2023-03-11T16:34:03.168Z,49.59
2023-03-11T16:36:34.971Z,49.70
2023-03-11T16:39:06.797Z,49.96
2023-03-11T16:41:44.464Z,49.45
2023-03-11T16:44:16.234Z,49.80
2023-03-11T16:46:47.954Z,49.59
2023-03-11T16:49:19.675Z,50.26
2023-03-11T16:51:51.381Z,49.97
2023-03-11T16:54:23.219Z,50.79
2023-03-11T16:56:54.954Z,50.85
2023-03-11T16:59:26.753Z,51.35
2023-03-11T17:01:59.488Z,51.22
2023-03-11T17:04:34.090Z,51.71
2023-03-11T17:07:07.313Z,51.29
2023-03-11T17:09:39.119Z,51.84
2023-03-11T17:12:13.429Z,52.06
2023-03-11T17:14:46.414Z,51.93
2023-03-11T17:17:19.195Z,51.84
2023-03-11T17:19:50.962Z,52.56
2023-03-11T17:22:22.766Z,51.69
2023-03-11T17:24:54.631Z,51.95
2023-03-11T17:27:32.094Z,52.45
2023-03-11T17:30:06.216Z,52.38
2023-03-11T17:32:38.081Z,51.87
2023-03-11T17:35:10.160Z,52.22
2023-03-11T17:37:41.834Z,52.29
2023-03-11T17:40:13.717Z,53.20
2023-03-11T17:42:45.488Z,53.37
2023-03-11T17:45:17.317Z,53.56
2023-03-11T17:47:49.165Z,53.65
2023-03-11T17:50:21.841Z,53.68
2023-03-11T17:52:53.658Z,54.12
2023-03-11T17:55:26.309Z,54.12
2023-03-11T17:57:58.400Z,54.67
2023-03-11T18:00:30.215Z,54.64
2023-03-11T18:03:01.904Z,54.60
2023-03-11T18:05:36.865Z,54.06
2023-03-11T18:08:08.607Z,53.88
2023-03-11T18:10:40.336Z,54.22
2023-03-11T18:13:12.002Z,54.72
2023-03-11T18:15:43.773Z,54.82
2023-03-11T18:18:15.607Z,55.04
2023-03-11T18:20:47.356Z,54.59
2023-03-11T18:23:19.186Z,54.50
2023-03-11T18:25:52.151Z,54.55
2023-03-11T18:28:23.914Z,54.73
2023-03-11T18:30:55.936Z,55.21
2023-03-11T18:33:30.722Z,55.19
2023-03-11T18:36:15.995Z,55.06
2023-03-11T18:38:48.926Z,55.46
2023-03-11T18:41:21.325Z,55.72
2023-03-11T18:43:54.922Z,55.48
2023-03-11T18:46:29.247Z,55.33
2023-03-11T18:49:03.520Z,55.31
2023-03-11T18:51:35.313Z,55.74
2023-03-11T18:54:07.204Z,55.97
2023-03-11T18:56:38.986Z,55.74
2023-03-11T18:59:12.171Z,55.51
2023-03-11T19:01:44.081Z,55.63
2023-03-11T19:04:15.925Z,56.01
2023-03-11T19:06:49.899Z,55.44
2023-03-11T19:09:21.731Z,55.82
2023-03-11T19:11:53.668Z,56.35
2023-03-11T19:14:25.589Z,56.31
2023-03-11T19:16:57.539Z,56.45
2023-03-11T19:19:31.525Z,56.34
2023-03-11T19:22:03.291Z,56.37
2023-03-11T19:24:35.021Z,57.00
2023-03-11T19:27:06.728Z,56.68
2023-03-11T19:29:38.522Z,56.99
2023-03-11T19:32:10.418Z,56.53
2023-03-11T19:34:42.237Z,57.16
2023-03-11T19:37:13.988Z,56.95
2023-03-11T19:39:45.972Z,56.94
2023-03-11T19:42:17.762Z,56.93
2023-03-11T19:44:50.188Z,57.40
2023-03-11T19:47:23.732Z,57.10
2023-03-11T19:49:55.445Z,57.20
2023-03-11T19:52:27.241Z,57.44
2023-03-11T19:54:59.114Z,57.73
2023-03-11T19:57:30.946Z,57.52
2023-03-11T20:00:02.861Z,57.79
2023-03-11T20:02:56.677Z,57.22
2023-03-11T20:05:29.099Z,57.72
2023-03-11T20:08:00.846Z,57.90
2023-03-11T20:10:41.811Z,58.41
2023-03-11T20:13:15.181Z,58.40
2023-03-11T20:15:47.185Z,58.32
2023-03-11T20:18:19.066Z,58.54
2023-03-11T20:20:50.914Z,58.55
2023-03-11T20:23:24.828Z,58.89
2023-03-11T20:25:56.556Z,58.58
2023-03-11T20:28:28.395Z,58.41
2023-03-11T20:31:06.405Z,58.97
2023-03-11T20:33:38.790Z,59.12
2023-03-11T20:36:14.147Z,58.45
2023-03-11T20:38:47.677Z,58.74
2023-03-11T20:41:20.033Z,59.02
2023-03-11T20:43:53.170Z,58.57
2023-03-11T20:46:25.255Z,59.04
2023-03-11T20:48:57.826Z,59.32
2023-03-11T20:51:30.152Z,58.75
2023-03-11T20:54:04.666Z,58.94
2023-03-11T20:56:36.623Z,59.33
2023-03-11T20:59:09.819Z,59.62
2023-03-11T21:01:41.697Z,59.50
2023-03-11T21:04:16.261Z,59.16
2023-03-11T21:06:52.571Z,59.41
2023-03-11T21:09:24.759Z,59.52
2023-03-11T21:11:59.365Z,59.58
2023-03-11T21:14:31.169Z,59.50
2023-03-11T21:17:03.145Z,60.00
2023-03-11T21:19:35.148Z,60.08
2023-03-11T21:22:06.928Z,60.09
2023-03-11T21:24:38.752Z,60.34
2023-03-11T21:27:11.352Z,60.56
2023-03-11T21:29:43.947Z,60.58
2023-03-11T21:32:15.780Z,60.47
2023-03-11T21:34:47.702Z,60.29
2023-03-11T21:37:21.526Z,60.33
2023-03-11T21:39:53.760Z,60.22
2023-03-11T21:42:29.854Z,60.03
2023-03-11T21:45:01.927Z,60.23
2023-03-11T21:47:33.681Z,59.95
2023-03-11T21:50:06.880Z,60.42
2023-03-11T21:52:38.663Z,60.26
2023-03-11T21:55:10.771Z,60.49
2023-03-11T21:57:42.514Z,60.57
2023-03-11T22:00:14.879Z,60.47
2023-03-11T22:02:50.025Z,60.32
2023-03-11T22:05:21.830Z,60.51
2023-03-11T22:07:55.481Z,60.54
2023-03-11T22:10:29.347Z,60.52
2023-03-11T22:13:01.224Z,60.30
2023-03-11T22:15:33.475Z,60.16
2023-03-11T22:18:05.353Z,63.72
2023-03-11T22:20:39.659Z,61.50
2023-03-11T22:23:11.807Z,60.46
2023-03-11T22:25:43.831Z,60.32
2023-03-11T22:28:15.745Z,59.94
2023-03-11T22:30:47.555Z,60.26
2023-03-11T22:33:20.400Z,60.29
2023-03-11T22:35:57.215Z,60.27
2023-03-11T22:38:30.817Z,60.34
2023-03-11T22:41:07.675Z,60.36
2023-03-11T22:43:40.032Z,60.62
2023-03-11T22:46:11.852Z,60.76
2023-03-11T22:48:43.572Z,60.70
2023-03-11T22:51:15.550Z,60.97
2023-03-11T22:53:47.635Z,61.02
2023-03-11T22:56:20.088Z,61.08
2023-03-11T22:58:51.841Z,61.31
2023-03-11T23:01:23.645Z,61.39
2023-03-11T23:03:55.491Z,61.41
2023-03-11T23:06:27.583Z,61.52
2023-03-11T23:08:59.482Z,61.49
2023-03-11T23:11:31.459Z,61.81
2023-03-11T23:14:03.238Z,61.98
2023-03-11T23:16:35.052Z,62.11
2023-03-11T23:19:07.227Z,62.00
2023-03-11T23:21:39.678Z,62.45
2023-03-11T23:24:11.380Z,62.55
2023-03-11T23:26:43.124Z,62.36
2023-03-11T23:29:14.837Z,62.69
2023-03-11T23:31:46.551Z,62.28
2023-03-11T23:34:18.271Z,62.90
2023-03-11T23:36:50.548Z,62.98
2023-03-11T23:39:22.253Z,62.52
2023-03-11T23:41:54.248Z,62.85
2023-03-11T23:44:26.832Z,62.94
2023-03-11T23:46:58.645Z,62.79
2023-03-11T23:49:31.844Z,62.77
2023-03-11T23:52:05.372Z,62.87
2023-03-11T23:54:37.131Z,62.78
2023-03-11T23:57:10.283Z,62.92
2023-03-11T23:59:45.525Z,63.33
